sensor_id;sensor_type;location;lat;lon;timestamp;temperature;humidity
79760;DHT22;70512;42.122;24.732;2024-02-23T00:01:56;7.10;86.00
79760;DHT22;70512;42.122;24.732;2024-02-23T00:04:24;7.10;86.70
79760;DHT22;70512;42.122;24.732;2024-02-23T00:06:51;7.10;86.10
79760;DHT22;70512;42.122;24.732;2024-02-23T00:09:19;7.10;85.90
79760;DHT22;70512;42.122;24.732;2024-02-23T00:11:47;7.10;86.00
79760;DHT22;70512;42.122;24.732;2024-02-23T00:14:16;7.00;86.30
79760;DHT22;70512;42.122;24.732;2024-02-23T00:16:45;7.00;86.60
79760;DHT22;70512;42.122;24.732;2024-02-23T00:19:14;7.00;86.60
79760;DHT22;70512;42.122;24.732;2024-02-23T00:21:44;7.00;86.30
79760;DHT22;70512;42.122;24.732;2024-02-23T00:24:13;6.90;86.90
79760;DHT22;70512;42.122;24.732;2024-02-23T00:26:43;7.00;86.30
79760;DHT22;70512;42.122;24.732;2024-02-23T00:29:11;6.90;86.70
79760;DHT22;70512;42.122;24.732;2024-02-23T00:31:39;6.90;87.00
79760;DHT22;70512;42.122;24.732;2024-02-23T00:34:11;6.80;87.70
79760;DHT22;70512;42.122;24.732;2024-02-23T00:36:41;6.80;87.60
79760;DHT22;70512;42.122;24.732;2024-02-23T00:39:09;6.70;87.70
79760;DHT22;70512;42.122;24.732;2024-02-23T00:41:37;6.80;87.70
79760;DHT22;70512;42.122;24.732;2024-02-23T00:44:05;6.80;87.70
79760;DHT22;70512;42.122;24.732;2024-02-23T00:46:32;6.80;87.70
79760;DHT22;70512;42.122;24.732;2024-02-23T00:49:00;6.80;88.00
79760;DHT22;70512;42.122;24.732;2024-02-23T00:51:29;6.70;87.70
79760;DHT22;70512;42.122;24.732;2024-02-23T00:53:56;6.70;87.90
79760;DHT22;70512;42.122;24.732;2024-02-23T00:56:24;6.70;87.90
79760;DHT22;70512;42.122;24.732;2024-02-23T00:58:52;6.60;87.90
79760;DHT22;70512;42.122;24.732;2024-02-23T01:01:20;6.70;87.40
79760;DHT22;70512;42.122;24.732;2024-02-23T01:03:47;6.70;87.30
79760;DHT22;70512;42.122;24.732;2024-02-23T01:06:15;6.60;87.80
79760;DHT22;70512;42.122;24.732;2024-02-23T01:08:44;6.60;87.50
79760;DHT22;70512;42.122;24.732;2024-02-23T01:11:11;6.60;87.40
79760;DHT22;70512;42.122;24.732;2024-02-23T01:13:39;6.50;87.90
79760;DHT22;70512;42.122;24.732;2024-02-23T01:16:07;6.60;87.80
79760;DHT22;70512;42.122;24.732;2024-02-23T01:18:34;6.50;87.70
79760;DHT22;70512;42.122;24.732;2024-02-23T01:21:02;6.50;87.70
79760;DHT22;70512;42.122;24.732;2024-02-23T01:23:30;6.40;88.70
79760;DHT22;70512;42.122;24.732;2024-02-23T01:25:58;6.40;88.20
79760;DHT22;70512;42.122;24.732;2024-02-23T01:28:26;6.30;88.40
79760;DHT22;70512;42.122;24.732;2024-02-23T01:30:54;6.30;88.60
79760;DHT22;70512;42.122;24.732;2024-02-23T01:33:22;6.20;88.70
79760;DHT22;70512;42.122;24.732;2024-02-23T01:35:49;6.20;89.10
79760;DHT22;70512;42.122;24.732;2024-02-23T01:38:17;6.20;89.00
79760;DHT22;70512;42.122;24.732;2024-02-23T01:40:48;6.20;89.00
79760;DHT22;70512;42.122;24.732;2024-02-23T01:43:16;6.10;89.30
79760;DHT22;70512;42.122;24.732;2024-02-23T01:45:44;6.10;89.60
79760;DHT22;70512;42.122;24.732;2024-02-23T01:48:11;6.10;89.80
79760;DHT22;70512;42.122;24.732;2024-02-23T01:50:39;6.00;89.90
79760;DHT22;70512;42.122;24.732;2024-02-23T01:53:07;6.00;90.00
79760;DHT22;70512;42.122;24.732;2024-02-23T01:55:35;6.10;89.80
79760;DHT22;70512;42.122;24.732;2024-02-23T01:58:04;6.00;89.90
79760;DHT22;70512;42.122;24.732;2024-02-23T02:00:32;6.00;90.10
79760;DHT22;70512;42.122;24.732;2024-02-23T02:03:00;6.00;90.00
79760;DHT22;70512;42.122;24.732;2024-02-23T02:05:27;5.90;89.90
79760;DHT22;70512;42.122;24.732;2024-02-23T02:07:56;5.90;90.10
79760;DHT22;70512;42.122;24.732;2024-02-23T02:10:25;5.90;90.10
79760;DHT22;70512;42.122;24.732;2024-02-23T02:12:53;5.90;90.10
79760;DHT22;70512;42.122;24.732;2024-02-23T02:15:21;5.80;90.10
79760;DHT22;70512;42.122;24.732;2024-02-23T02:17:49;5.80;90.10
79760;DHT22;70512;42.122;24.732;2024-02-23T02:20:18;5.80;90.30
79760;DHT22;70512;42.122;24.732;2024-02-23T02:22:47;5.80;90.30
79760;DHT22;70512;42.122;24.732;2024-02-23T02:25:15;5.80;90.20
79760;DHT22;70512;42.122;24.732;2024-02-23T02:27:43;5.70;90.20
79760;DHT22;70512;42.122;24.732;2024-02-23T02:30:12;5.70;90.40
79760;DHT22;70512;42.122;24.732;2024-02-23T02:32:40;5.60;90.40
79760;DHT22;70512;42.122;24.732;2024-02-23T02:35:10;5.60;90.60
79760;DHT22;70512;42.122;24.732;2024-02-23T02:37:38;5.50;90.80
79760;DHT22;70512;42.122;24.732;2024-02-23T02:40:06;5.50;90.80
79760;DHT22;70512;42.122;24.732;2024-02-23T02:42:34;5.50;91.10
79760;DHT22;70512;42.122;24.732;2024-02-23T02:45:02;5.50;90.80
79760;DHT22;70512;42.122;24.732;2024-02-23T02:47:30;5.50;90.60
79760;DHT22;70512;42.122;24.732;2024-02-23T02:49:57;5.50;90.80
79760;DHT22;70512;42.122;24.732;2024-02-23T02:52:25;5.40;90.80
79760;DHT22;70512;42.122;24.732;2024-02-23T02:54:53;5.30;90.20
79760;DHT22;70512;42.122;24.732;2024-02-23T02:57:21;5.30;89.60
79760;DHT22;70512;42.122;24.732;2024-02-23T02:59:49;5.40;89.40
79760;DHT22;70512;42.122;24.732;2024-02-23T03:02:16;5.40;89.30
79760;DHT22;70512;42.122;24.732;2024-02-23T03:04:49;5.30;90.00
79760;DHT22;70512;42.122;24.732;2024-02-23T03:07:17;5.20;90.20
79760;DHT22;70512;42.122;24.732;2024-02-23T03:09:44;5.20;90.50
79760;DHT22;70512;42.122;24.732;2024-02-23T03:12:12;5.20;90.50
79760;DHT22;70512;42.122;24.732;2024-02-23T03:14:40;5.20;90.40
79760;DHT22;70512;42.122;24.732;2024-02-23T03:17:08;5.20;90.50
79760;DHT22;70512;42.122;24.732;2024-02-23T03:19:39;5.10;90.50
79760;DHT22;70512;42.122;24.732;2024-02-23T03:22:06;5.10;90.50
79760;DHT22;70512;42.122;24.732;2024-02-23T03:24:34;5.20;90.40
79760;DHT22;70512;42.122;24.732;2024-02-23T03:27:02;5.20;90.10
79760;DHT22;70512;42.122;24.732;2024-02-23T03:29:30;5.10;90.10
79760;DHT22;70512;42.122;24.732;2024-02-23T03:31:58;5.10;90.30
79760;DHT22;70512;42.122;24.732;2024-02-23T03:34:28;5.10;90.20
79760;DHT22;70512;42.122;24.732;2024-02-23T03:36:55;5.00;89.50
79760;DHT22;70512;42.122;24.732;2024-02-23T03:39:25;5.00;89.40
79760;DHT22;70512;42.122;24.732;2024-02-23T03:41:52;5.00;90.10
79760;DHT22;70512;42.122;24.732;2024-02-23T03:44:20;4.90;90.10
79760;DHT22;70512;42.122;24.732;2024-02-23T03:46:48;4.80;90.30
79760;DHT22;70512;42.122;24.732;2024-02-23T03:49:15;4.80;90.50
79760;DHT22;70512;42.122;24.732;2024-02-23T03:51:43;4.80;90.30
79760;DHT22;70512;42.122;24.732;2024-02-23T03:54:11;4.80;90.30
79760;DHT22;70512;42.122;24.732;2024-02-23T03:56:40;4.90;90.30
79760;DHT22;70512;42.122;24.732;2024-02-23T03:59:09;4.80;90.30
79760;DHT22;70512;42.122;24.732;2024-02-23T04:01:37;4.90;90.00
79760;DHT22;70512;42.122;24.732;2024-02-23T04:04:06;4.90;90.00
79760;DHT22;70512;42.122;24.732;2024-02-23T04:06:34;4.80;90.00
79760;DHT22;70512;42.122;24.732;2024-02-23T04:09:02;4.70;89.70
79760;DHT22;70512;42.122;24.732;2024-02-23T04:11:33;4.80;89.30
79760;DHT22;70512;42.122;24.732;2024-02-23T04:14:01;4.70;90.00
79760;DHT22;70512;42.122;24.732;2024-02-23T04:16:28;4.70;90.10
79760;DHT22;70512;42.122;24.732;2024-02-23T04:18:56;4.70;90.00
79760;DHT22;70512;42.122;24.732;2024-02-23T04:21:24;4.60;90.20
79760;DHT22;70512;42.122;24.732;2024-02-23T04:23:52;4.70;90.10
79760;DHT22;70512;42.122;24.732;2024-02-23T04:26:19;4.60;90.50
79760;DHT22;70512;42.122;24.732;2024-02-23T04:28:47;4.50;90.60
79760;DHT22;70512;42.122;24.732;2024-02-23T04:31:15;4.50;90.70
79760;DHT22;70512;42.122;24.732;2024-02-23T04:33:42;4.50;90.60
79760;DHT22;70512;42.122;24.732;2024-02-23T04:36:10;4.50;90.70
79760;DHT22;70512;42.122;24.732;2024-02-23T04:38:38;4.50;90.80
79760;DHT22;70512;42.122;24.732;2024-02-23T04:41:06;4.60;90.60
79760;DHT22;70512;42.122;24.732;2024-02-23T04:43:34;4.60;90.80
79760;DHT22;70512;42.122;24.732;2024-02-23T04:46:01;4.50;90.80
79760;DHT22;70512;42.122;24.732;2024-02-23T04:48:29;4.60;90.70
79760;DHT22;70512;42.122;24.732;2024-02-23T04:50:58;4.70;90.80
79760;DHT22;70512;42.122;24.732;2024-02-23T04:53:25;4.80;90.60
79760;DHT22;70512;42.122;24.732;2024-02-23T04:55:53;4.70;90.70
79760;DHT22;70512;42.122;24.732;2024-02-23T04:58:21;4.70;90.60
79760;DHT22;70512;42.122;24.732;2024-02-23T05:00:48;4.60;90.90
79760;DHT22;70512;42.122;24.732;2024-02-23T05:03:16;4.50;90.90
79760;DHT22;70512;42.122;24.732;2024-02-23T05:05:44;4.60;90.90
79760;DHT22;70512;42.122;24.732;2024-02-23T05:08:11;4.60;91.00
79760;DHT22;70512;42.122;24.732;2024-02-23T05:10:39;4.50;91.10
79760;DHT22;70512;42.122;24.732;2024-02-23T05:13:07;4.50;91.10
79760;DHT22;70512;42.122;24.732;2024-02-23T05:15:35;4.50;91.20
79760;DHT22;70512;42.122;24.732;2024-02-23T05:18:02;4.50;91.30
79760;DHT22;70512;42.122;24.732;2024-02-23T05:20:30;4.60;91.10
79760;DHT22;70512;42.122;24.732;2024-02-23T05:22:58;4.70;91.20
79760;DHT22;70512;42.122;24.732;2024-02-23T05:25:25;4.70;90.90
79760;DHT22;70512;42.122;24.732;2024-02-23T05:27:53;4.70;90.80
79760;DHT22;70512;42.122;24.732;2024-02-23T05:30:21;4.60;90.80
79760;DHT22;70512;42.122;24.732;2024-02-23T05:32:48;4.70;90.80
79760;DHT22;70512;42.122;24.732;2024-02-23T05:35:16;4.70;90.80
79760;DHT22;70512;42.122;24.732;2024-02-23T05:37:44;4.70;90.70
79760;DHT22;70512;42.122;24.732;2024-02-23T05:40:11;4.80;90.70
79760;DHT22;70512;42.122;24.732;2024-02-23T05:42:39;4.80;90.50
79760;DHT22;70512;42.122;24.732;2024-02-23T05:45:08;4.90;90.40
79760;DHT22;70512;42.122;24.732;2024-02-23T05:47:37;5.00;90.20
79760;DHT22;70512;42.122;24.732;2024-02-23T05:50:05;5.10;90.10
79760;DHT22;70512;42.122;24.732;2024-02-23T05:52:33;5.10;90.10
79760;DHT22;70512;42.122;24.732;2024-02-23T05:55:07;5.00;90.30
79760;DHT22;70512;42.122;24.732;2024-02-23T05:57:31;5.20;90.40
79760;DHT22;70512;42.122;24.732;2024-02-23T05:59:59;5.30;90.40
79760;DHT22;70512;42.122;24.732;2024-02-23T06:02:27;5.40;90.20
79760;DHT22;70512;42.122;24.732;2024-02-23T06:04:55;5.60;89.70
79760;DHT22;70512;42.122;24.732;2024-02-23T06:07:22;6.20;87.90
79760;DHT22;70512;42.122;24.732;2024-02-23T06:09:52;7.00;83.30
79760;DHT22;70512;42.122;24.732;2024-02-23T06:12:19;7.60;79.90
79760;DHT22;70512;42.122;24.732;2024-02-23T06:14:47;8.10;77.70
79760;DHT22;70512;42.122;24.732;2024-02-23T06:17:15;8.60;75.30
79760;DHT22;70512;42.122;24.732;2024-02-23T06:19:43;8.90;73.20
79760;DHT22;70512;42.122;24.732;2024-02-23T06:22:10;8.90;72.60
79760;DHT22;70512;42.122;24.732;2024-02-23T06:24:38;9.50;70.00
79760;DHT22;70512;42.122;24.732;2024-02-23T06:27:06;10.20;67.40
79760;DHT22;70512;42.122;24.732;2024-02-23T06:29:35;10.70;64.50
79760;DHT22;70512;42.122;24.732;2024-02-23T06:32:02;10.50;63.90
79760;DHT22;70512;42.122;24.732;2024-02-23T06:34:30;11.30;62.20
79760;DHT22;70512;42.122;24.732;2024-02-23T06:36:58;11.80;59.50
79760;DHT22;70512;42.122;24.732;2024-02-23T06:39:26;12.80;56.60
79760;DHT22;70512;42.122;24.732;2024-02-23T06:41:53;12.50;55.80
79760;DHT22;70512;42.122;24.732;2024-02-23T06:44:21;12.20;56.60
79760;DHT22;70512;42.122;24.732;2024-02-23T06:46:49;12.30;56.50
79760;DHT22;70512;42.122;24.732;2024-02-23T06:49:16;13.30;55.10
79760;DHT22;70512;42.122;24.732;2024-02-23T06:51:44;14.50;52.10
79760;DHT22;70512;42.122;24.732;2024-02-23T06:54:12;15.50;48.80
79760;DHT22;70512;42.122;24.732;2024-02-23T06:56:39;16.90;46.10
79760;DHT22;70512;42.122;24.732;2024-02-23T06:59:07;18.40;41.10
79760;DHT22;70512;42.122;24.732;2024-02-23T07:01:35;18.60;39.40
79760;DHT22;70512;42.122;24.732;2024-02-23T07:04:03;19.00;38.70
79760;DHT22;70512;42.122;24.732;2024-02-23T07:06:31;19.60;37.30
79760;DHT22;70512;42.122;24.732;2024-02-23T07:09:00;19.20;36.70
79760;DHT22;70512;42.122;24.732;2024-02-23T07:11:28;18.80;38.50
79760;DHT22;70512;42.122;24.732;2024-02-23T07:13:56;19.40;37.50
79760;DHT22;70512;42.122;24.732;2024-02-23T07:16:24;19.70;36.40
79760;DHT22;70512;42.122;24.732;2024-02-23T07:18:52;19.60;36.40
79760;DHT22;70512;42.122;24.732;2024-02-23T07:21:21;19.40;36.40
79760;DHT22;70512;42.122;24.732;2024-02-23T07:23:49;19.40;36.80
79760;DHT22;70512;42.122;24.732;2024-02-23T07:26:16;20.10;35.90
79760;DHT22;70512;42.122;24.732;2024-02-23T07:28:46;21.60;33.50
79760;DHT22;70512;42.122;24.732;2024-02-23T07:31:13;22.60;31.60
79760;DHT22;70512;42.122;24.732;2024-02-23T07:33:42;23.90;29.70
79760;DHT22;70512;42.122;24.732;2024-02-23T07:36:16;25.10;28.00
79760;DHT22;70512;42.122;24.732;2024-02-23T07:38:43;25.60;26.90
79760;DHT22;70512;42.122;24.732;2024-02-23T07:41:12;25.60;26.50
79760;DHT22;70512;42.122;24.732;2024-02-23T07:43:41;25.70;27.00
79760;DHT22;70512;42.122;24.732;2024-02-23T07:46:08;25.70;26.80
79760;DHT22;70512;42.122;24.732;2024-02-23T07:48:36;26.30;26.40
79760;DHT22;70512;42.122;24.732;2024-02-23T07:51:05;27.20;25.40
79760;DHT22;70512;42.122;24.732;2024-02-23T07:53:33;27.70;25.00
79760;DHT22;70512;42.122;24.732;2024-02-23T07:56:01;27.20;25.00
79760;DHT22;70512;42.122;24.732;2024-02-23T07:58:29;27.50;25.20
79760;DHT22;70512;42.122;24.732;2024-02-23T08:00:57;27.50;24.80
79760;DHT22;70512;42.122;24.732;2024-02-23T08:03:24;27.40;25.30
79760;DHT22;70512;42.122;24.732;2024-02-23T08:05:52;27.60;24.90
79760;DHT22;70512;42.122;24.732;2024-02-23T08:08:20;26.90;25.50
79760;DHT22;70512;42.122;24.732;2024-02-23T08:10:49;27.50;25.70
79760;DHT22;70512;42.122;24.732;2024-02-23T08:13:17;28.20;24.70
79760;DHT22;70512;42.122;24.732;2024-02-23T08:15:45;28.70;24.00
79760;DHT22;70512;42.122;24.732;2024-02-23T08:18:13;28.10;24.70
79760;DHT22;70512;42.122;24.732;2024-02-23T08:20:40;28.50;24.40
79760;DHT22;70512;42.122;24.732;2024-02-23T08:23:08;29.00;24.20
79760;DHT22;70512;42.122;24.732;2024-02-23T08:25:37;29.50;23.80
79760;DHT22;70512;42.122;24.732;2024-02-23T08:28:05;29.70;23.60
79760;DHT22;70512;42.122;24.732;2024-02-23T08:30:32;30.00;23.30
79760;DHT22;70512;42.122;24.732;2024-02-23T08:33:00;30.20;23.30
79760;DHT22;70512;42.122;24.732;2024-02-23T08:35:28;30.70;23.20
79760;DHT22;70512;42.122;24.732;2024-02-23T08:37:56;30.40;22.90
79760;DHT22;70512;42.122;24.732;2024-02-23T08:40:23;30.90;22.80
79760;DHT22;70512;42.122;24.732;2024-02-23T08:42:51;30.60;22.60
79760;DHT22;70512;42.122;24.732;2024-02-23T08:45:19;30.40;22.90
79760;DHT22;70512;42.122;24.732;2024-02-23T08:47:46;30.00;23.40
79760;DHT22;70512;42.122;24.732;2024-02-23T08:50:14;30.60;22.90
79760;DHT22;70512;42.122;24.732;2024-02-23T08:52:42;31.70;22.10
79760;DHT22;70512;42.122;24.732;2024-02-23T08:55:09;32.30;21.50
79760;DHT22;70512;42.122;24.732;2024-02-23T08:57:38;32.30;21.30
79760;DHT22;70512;42.122;24.732;2024-02-23T09:00:07;32.50;21.40
79760;DHT22;70512;42.122;24.732;2024-02-23T09:02:35;33.10;20.80
79760;DHT22;70512;42.122;24.732;2024-02-23T09:05:04;33.70;20.40
79760;DHT22;70512;42.122;24.732;2024-02-23T09:07:32;34.20;20.10
79760;DHT22;70512;42.122;24.732;2024-02-23T09:10:00;32.60;20.30
79760;DHT22;70512;42.122;24.732;2024-02-23T09:12:28;32.30;21.10
79760;DHT22;70512;42.122;24.732;2024-02-23T09:14:55;32.70;20.70
79760;DHT22;70512;42.122;24.732;2024-02-23T09:17:23;32.90;20.80
79760;DHT22;70512;42.122;24.732;2024-02-23T09:19:52;33.80;20.30
79760;DHT22;70512;42.122;24.732;2024-02-23T09:22:19;34.50;19.50
79760;DHT22;70512;42.122;24.732;2024-02-23T09:24:47;33.70;19.80
79760;DHT22;70512;42.122;24.732;2024-02-23T09:27:15;33.50;20.40
79760;DHT22;70512;42.122;24.732;2024-02-23T09:29:42;33.60;20.00
79760;DHT22;70512;42.122;24.732;2024-02-23T09:32:10;33.80;20.10
79760;DHT22;70512;42.122;24.732;2024-02-23T09:34:38;34.50;19.80
79760;DHT22;70512;42.122;24.732;2024-02-23T09:37:06;34.40;19.60
79760;DHT22;70512;42.122;24.732;2024-02-23T09:39:33;33.50;19.90
79760;DHT22;70512;42.122;24.732;2024-02-23T09:42:01;33.50;20.30
79760;DHT22;70512;42.122;24.732;2024-02-23T09:44:33;33.80;20.20
79760;DHT22;70512;42.122;24.732;2024-02-23T09:47:04;33.60;19.80
79760;DHT22;70512;42.122;24.732;2024-02-23T09:49:38;33.60;20.30
79760;DHT22;70512;42.122;24.732;2024-02-23T09:52:09;33.50;20.20
79760;DHT22;70512;42.122;24.732;2024-02-23T09:54:38;33.10;20.90
79760;DHT22;70512;42.122;24.732;2024-02-23T09:57:09;34.10;20.30
79760;DHT22;70512;42.122;24.732;2024-02-23T09:59:37;34.40;19.50
79760;DHT22;70512;42.122;24.732;2024-02-23T10:02:09;32.90;20.60
79760;DHT22;70512;42.122;24.732;2024-02-23T10:04:42;33.50;20.70
79760;DHT22;70512;42.122;24.732;2024-02-23T10:07:07;33.50;20.30
79760;DHT22;70512;42.122;24.732;2024-02-23T10:09:35;34.40;20.10
79760;DHT22;70512;42.122;24.732;2024-02-23T10:12:03;35.00;19.70
79760;DHT22;70512;42.122;24.732;2024-02-23T10:14:31;35.70;19.10
79760;DHT22;70512;42.122;24.732;2024-02-23T10:16:59;35.30;18.90
79760;DHT22;70512;42.122;24.732;2024-02-23T10:19:28;34.40;19.70
79760;DHT22;70512;42.122;24.732;2024-02-23T10:21:57;35.10;19.30
79760;DHT22;70512;42.122;24.732;2024-02-23T10:24:24;35.00;19.50
79760;DHT22;70512;42.122;24.732;2024-02-23T10:26:52;35.10;19.10
79760;DHT22;70512;42.122;24.732;2024-02-23T10:29:20;34.80;19.30
79760;DHT22;70512;42.122;24.732;2024-02-23T10:31:48;34.40;19.40
79760;DHT22;70512;42.122;24.732;2024-02-23T10:34:20;35.40;19.40
79760;DHT22;70512;42.122;24.732;2024-02-23T10:36:47;36.40;18.70
79760;DHT22;70512;42.122;24.732;2024-02-23T10:39:18;36.00;18.20
79760;DHT22;70512;42.122;24.732;2024-02-23T10:41:56;35.90;18.20
79760;DHT22;70512;42.122;24.732;2024-02-23T10:44:29;36.00;18.30
79760;DHT22;70512;42.122;24.732;2024-02-23T10:46:58;36.60;18.50
79760;DHT22;70512;42.122;24.732;2024-02-23T10:49:28;36.40;18.00
79760;DHT22;70512;42.122;24.732;2024-02-23T10:51:59;35.60;18.30
79760;DHT22;70512;42.122;24.732;2024-02-23T10:54:28;34.70;19.10
79760;DHT22;70512;42.122;24.732;2024-02-23T10:56:56;34.90;19.20
79760;DHT22;70512;42.122;24.732;2024-02-23T10:59:24;35.40;18.80
79760;DHT22;70512;42.122;24.732;2024-02-23T11:01:53;34.90;18.50
79760;DHT22;70512;42.122;24.732;2024-02-23T11:04:24;35.70;18.80
79760;DHT22;70512;42.122;24.732;2024-02-23T11:06:54;35.60;18.60
79760;DHT22;70512;42.122;24.732;2024-02-23T11:09:27;36.00;18.30
79760;DHT22;70512;42.122;24.732;2024-02-23T11:11:56;37.10;18.40
79760;DHT22;70512;42.122;24.732;2024-02-23T11:14:35;36.60;17.90
79760;DHT22;70512;42.122;24.732;2024-02-23T11:17:04;36.30;18.10
79760;DHT22;70512;42.122;24.732;2024-02-23T11:19:39;36.10;18.50
79760;DHT22;70512;42.122;24.732;2024-02-23T11:22:11;36.50;18.00
79760;DHT22;70512;42.122;24.732;2024-02-23T11:24:43;37.00;17.80
79760;DHT22;70512;42.122;24.732;2024-02-23T11:27:15;37.50;17.20
79760;DHT22;70512;42.122;24.732;2024-02-23T11:29:47;34.40;18.10
79760;DHT22;70512;42.122;24.732;2024-02-23T11:32:18;34.40;19.20
79760;DHT22;70512;42.122;24.732;2024-02-23T11:34:55;33.80;19.40
79760;DHT22;70512;42.122;24.732;2024-02-23T11:37:23;33.20;20.10
79760;DHT22;70512;42.122;24.732;2024-02-23T11:39:51;33.80;19.70
79760;DHT22;70512;42.122;24.732;2024-02-23T11:42:20;34.80;19.40
79760;DHT22;70512;42.122;24.732;2024-02-23T11:44:48;35.70;18.90
79760;DHT22;70512;42.122;24.732;2024-02-23T11:47:25;36.00;18.20
79760;DHT22;70512;42.122;24.732;2024-02-23T11:49:53;36.40;18.40
79760;DHT22;70512;42.122;24.732;2024-02-23T11:52:22;36.50;17.60
79760;DHT22;70512;42.122;24.732;2024-02-23T11:54:50;36.50;17.80
79760;DHT22;70512;42.122;24.732;2024-02-23T11:57:19;35.10;17.90
79760;DHT22;70512;42.122;24.732;2024-02-23T11:59:47;35.70;18.20
79760;DHT22;70512;42.122;24.732;2024-02-23T12:02:15;36.70;17.90
79760;DHT22;70512;42.122;24.732;2024-02-23T12:04:42;37.20;17.80
79760;DHT22;70512;42.122;24.732;2024-02-23T12:07:10;37.50;17.30
79760;DHT22;70512;42.122;24.732;2024-02-23T12:09:39;37.30;17.10
79760;DHT22;70512;42.122;24.732;2024-02-23T12:12:08;37.40;17.30
79760;DHT22;70512;42.122;24.732;2024-02-23T12:14:36;36.40;17.70
79760;DHT22;70512;42.122;24.732;2024-02-23T12:17:04;36.60;17.80
79760;DHT22;70512;42.122;24.732;2024-02-23T12:19:33;36.60;17.80
79760;DHT22;70512;42.122;24.732;2024-02-23T12:22:04;36.60;17.70
79760;DHT22;70512;42.122;24.732;2024-02-23T12:24:32;36.20;17.80
79760;DHT22;70512;42.122;24.732;2024-02-23T12:26:59;36.30;17.90
79760;DHT22;70512;42.122;24.732;2024-02-23T12:29:27;34.30;17.60
79760;DHT22;70512;42.122;24.732;2024-02-23T12:32:07;34.00;19.00
79760;DHT22;70512;42.122;24.732;2024-02-23T12:34:35;35.10;18.70
79760;DHT22;70512;42.122;24.732;2024-02-23T12:37:03;35.60;18.70
79760;DHT22;70512;42.122;24.732;2024-02-23T12:39:32;34.10;18.20
79760;DHT22;70512;42.122;24.732;2024-02-23T12:41:59;33.70;19.10
79760;DHT22;70512;42.122;24.732;2024-02-23T12:44:27;34.00;19.20
79760;DHT22;70512;42.122;24.732;2024-02-23T12:46:57;34.90;18.50
79760;DHT22;70512;42.122;24.732;2024-02-23T12:49:25;35.20;18.40
79760;DHT22;70512;42.122;24.732;2024-02-23T12:51:52;36.20;18.00
79760;DHT22;70512;42.122;24.732;2024-02-23T12:54:20;35.60;17.50
79760;DHT22;70512;42.122;24.732;2024-02-23T12:56:48;33.50;18.50
79760;DHT22;70512;42.122;24.732;2024-02-23T12:59:16;33.00;19.30
79760;DHT22;70512;42.122;24.732;2024-02-23T13:01:44;33.90;19.40
79760;DHT22;70512;42.122;24.732;2024-02-23T13:04:12;33.30;19.00
79760;DHT22;70512;42.122;24.732;2024-02-23T13:06:40;33.70;19.50
79760;DHT22;70512;42.122;24.732;2024-02-23T13:09:08;34.20;19.30
79760;DHT22;70512;42.122;24.732;2024-02-23T13:11:39;34.50;18.90
79760;DHT22;70512;42.122;24.732;2024-02-23T13:14:06;34.80;18.30
79760;DHT22;70512;42.122;24.732;2024-02-23T13:16:36;34.30;18.70
79760;DHT22;70512;42.122;24.732;2024-02-23T13:19:03;34.90;18.60
79760;DHT22;70512;42.122;24.732;2024-02-23T13:21:31;34.80;18.50
79760;DHT22;70512;42.122;24.732;2024-02-23T13:24:00;34.60;18.80
79760;DHT22;70512;42.122;24.732;2024-02-23T13:26:27;35.10;19.00
79760;DHT22;70512;42.122;24.732;2024-02-23T13:28:55;35.40;18.40
79760;DHT22;70512;42.122;24.732;2024-02-23T13:31:24;34.70;18.90
79760;DHT22;70512;42.122;24.732;2024-02-23T13:33:52;34.50;19.00
79760;DHT22;70512;42.122;24.732;2024-02-23T13:36:19;34.40;18.70
79760;DHT22;70512;42.122;24.732;2024-02-23T13:38:47;34.90;18.90
79760;DHT22;70512;42.122;24.732;2024-02-23T13:41:16;35.40;18.30
79760;DHT22;70512;42.122;24.732;2024-02-23T13:43:44;35.20;18.70
79760;DHT22;70512;42.122;24.732;2024-02-23T13:46:11;35.40;18.30
79760;DHT22;70512;42.122;24.732;2024-02-23T13:48:39;35.60;18.90
79760;DHT22;70512;42.122;24.732;2024-02-23T13:51:07;35.60;18.20
79760;DHT22;70512;42.122;24.732;2024-02-23T13:53:35;35.50;18.00
79760;DHT22;70512;42.122;24.732;2024-02-23T13:56:04;32.80;18.90
79760;DHT22;70512;42.122;24.732;2024-02-23T13:58:32;32.60;20.00
79760;DHT22;70512;42.122;24.732;2024-02-23T14:00:59;32.70;20.00
79760;DHT22;70512;42.122;24.732;2024-02-23T14:03:27;33.20;20.00
79760;DHT22;70512;42.122;24.732;2024-02-23T14:05:56;32.70;19.90
79760;DHT22;70512;42.122;24.732;2024-02-23T14:08:25;31.50;21.10
79760;DHT22;70512;42.122;24.732;2024-02-23T14:10:52;29.90;22.60
79760;DHT22;70512;42.122;24.732;2024-02-23T14:13:20;28.40;23.70
79760;DHT22;70512;42.122;24.732;2024-02-23T14:15:48;26.60;25.20
79760;DHT22;70512;42.122;24.732;2024-02-23T14:18:15;25.20;26.80
79760;DHT22;70512;42.122;24.732;2024-02-23T14:20:43;24.00;28.50
79760;DHT22;70512;42.122;24.732;2024-02-23T14:23:11;22.80;30.10
79760;DHT22;70512;42.122;24.732;2024-02-23T14:25:38;22.10;31.90
79760;DHT22;70512;42.122;24.732;2024-02-23T14:28:06;21.40;33.00
79760;DHT22;70512;42.122;24.732;2024-02-23T14:30:35;20.70;34.30
79760;DHT22;70512;42.122;24.732;2024-02-23T14:33:03;20.20;35.50
79760;DHT22;70512;42.122;24.732;2024-02-23T14:35:31;19.90;36.40
79760;DHT22;70512;42.122;24.732;2024-02-23T14:37:58;19.70;37.00
79760;DHT22;70512;42.122;24.732;2024-02-23T14:40:26;19.50;38.20
79760;DHT22;70512;42.122;24.732;2024-02-23T14:42:54;19.50;38.10
79760;DHT22;70512;42.122;24.732;2024-02-23T14:45:22;19.20;38.50
79760;DHT22;70512;42.122;24.732;2024-02-23T14:47:50;19.20;38.50
79760;DHT22;70512;42.122;24.732;2024-02-23T14:50:17;19.20;38.70
79760;DHT22;70512;42.122;24.732;2024-02-23T14:52:45;19.20;39.30
79760;DHT22;70512;42.122;24.732;2024-02-23T14:55:13;19.20;39.00
79760;DHT22;70512;42.122;24.732;2024-02-23T14:57:40;20.40;36.90
79760;DHT22;70512;42.122;24.732;2024-02-23T15:00:09;22.40;33.30
79760;DHT22;70512;42.122;24.732;2024-02-23T15:02:37;23.50;31.10
79760;DHT22;70512;42.122;24.732;2024-02-23T15:05:05;24.30;29.80
79760;DHT22;70512;42.122;24.732;2024-02-23T15:07:34;24.80;29.10
79760;DHT22;70512;42.122;24.732;2024-02-23T15:10:02;25.20;28.80
79760;DHT22;70512;42.122;24.732;2024-02-23T15:12:32;25.60;28.40
79760;DHT22;70512;42.122;24.732;2024-02-23T15:15:00;26.00;28.00
79760;DHT22;70512;42.122;24.732;2024-02-23T15:17:27;26.20;27.50
79760;DHT22;70512;42.122;24.732;2024-02-23T15:19:55;26.00;27.50
79760;DHT22;70512;42.122;24.732;2024-02-23T15:22:23;25.80;28.20
79760;DHT22;70512;42.122;24.732;2024-02-23T15:24:52;25.50;29.20
79760;DHT22;70512;42.122;24.732;2024-02-23T15:27:20;25.20;29.40
79760;DHT22;70512;42.122;24.732;2024-02-23T15:29:47;24.90;29.90